sensor_id;sensor_type;location;lat;lon;timestamp;temperature;humidity
13798;DHT22;6970;51.340;3.240;2023-06-22T00:02:16;18.50;99.90
13798;DHT22;6970;51.340;3.240;2023-06-22T00:04:47;18.50;99.90
13798;DHT22;6970;51.340;3.240;2023-06-22T00:07:16;18.50;99.90
13798;DHT22;6970;51.340;3.240;2023-06-22T00:09:46;18.50;99.90
13798;DHT22;6970;51.340;3.240;2023-06-22T00:12:16;18.50;99.90
13798;DHT22;6970;51.340;3.240;2023-06-22T00:14:43;18.50;99.90
13798;DHT22;6970;51.340;3.240;2023-06-22T00:17:11;18.50;99.90
13798;DHT22;6970;51.340;3.240;2023-06-22T00:19:38;18.40;99.90
13798;DHT22;6970;51.340;3.240;2023-06-22T00:22:09;18.40;99.90
13798;DHT22;6970;51.340;3.240;2023-06-22T00:24:36;18.40;99.90
13798;DHT22;6970;51.340;3.240;2023-06-22T00:27:03;18.40;99.90
13798;DHT22;6970;51.340;3.240;2023-06-22T00:29:33;18.40;99.90
13798;DHT22;6970;51.340;3.240;2023-06-22T00:32:00;18.40;99.90
13798;DHT22;6970;51.340;3.240;2023-06-22T00:34:28;18.40;99.90
13798;DHT22;6970;51.340;3.240;2023-06-22T00:36:55;18.40;99.90
13798;DHT22;6970;51.340;3.240;2023-06-22T00:39:22;18.40;99.90
13798;DHT22;6970;51.340;3.240;2023-06-22T00:41:49;18.50;99.90
13798;DHT22;6970;51.340;3.240;2023-06-22T00:44:17;18.50;99.90
13798;DHT22;6970;51.340;3.240;2023-06-22T00:46:44;18.50;99.90
13798;DHT22;6970;51.340;3.240;2023-06-22T00:49:11;18.60;99.90
13798;DHT22;6970;51.340;3.240;2023-06-22T00:51:38;18.60;99.90
13798;DHT22;6970;51.340;3.240;2023-06-22T00:54:09;18.60;99.90
13798;DHT22;6970;51.340;3.240;2023-06-22T00:56:41;18.60;99.90
13798;DHT22;6970;51.340;3.240;2023-06-22T00:59:11;18.60;99.90
13798;DHT22;6970;51.340;3.240;2023-06-22T01:01:40;18.60;99.90
13798;DHT22;6970;51.340;3.240;2023-06-22T01:04:09;18.60;99.90
13798;DHT22;6970;51.340;3.240;2023-06-22T01:06:47;18.70;99.90
13798;DHT22;6970;51.340;3.240;2023-06-22T01:09:24;18.70;99.90
13798;DHT22;6970;51.340;3.240;2023-06-22T01:11:58;18.70;99.90
13798;DHT22;6970;51.340;3.240;2023-06-22T01:14:40;18.70;99.90
13798;DHT22;6970;51.340;3.240;2023-06-22T01:17:12;18.70;99.90
13798;DHT22;6970;51.340;3.240;2023-06-22T01:19:55;18.70;99.90
13798;DHT22;6970;51.340;3.240;2023-06-22T01:22:33;18.70;99.90
13798;DHT22;6970;51.340;3.240;2023-06-22T01:25:31;18.70;99.90
13798;DHT22;6970;51.340;3.240;2023-06-22T01:28:17;18.70;99.90
13798;DHT22;6970;51.340;3.240;2023-06-22T01:30:49;18.70;99.90
13798;DHT22;6970;51.340;3.240;2023-06-22T01:33:39;18.70;99.90
13798;DHT22;6970;51.340;3.240;2023-06-22T01:36:06;18.70;99.90
13798;DHT22;6970;51.340;3.240;2023-06-22T01:38:34;18.70;99.90
13798;DHT22;6970;51.340;3.240;2023-06-22T01:41:05;18.70;99.90
13798;DHT22;6970;51.340;3.240;2023-06-22T01:43:33;18.70;99.90
13798;DHT22;6970;51.340;3.240;2023-06-22T01:46:01;18.70;99.90
13798;DHT22;6970;51.340;3.240;2023-06-22T01:48:31;18.70;99.90
13798;DHT22;6970;51.340;3.240;2023-06-22T01:50:59;18.70;99.90
13798;DHT22;6970;51.340;3.240;2023-06-22T01:53:27;18.70;99.90
13798;DHT22;6970;51.340;3.240;2023-06-22T01:55:57;18.70;99.90
13798;DHT22;6970;51.340;3.240;2023-06-22T01:58:28;18.70;99.90
13798;DHT22;6970;51.340;3.240;2023-06-22T02:01:10;18.70;99.90
13798;DHT22;6970;51.340;3.240;2023-06-22T02:03:47;18.70;99.90
13798;DHT22;6970;51.340;3.240;2023-06-22T02:06:31;18.70;99.90
13798;DHT22;6970;51.340;3.240;2023-06-22T02:09:07;18.70;99.90
13798;DHT22;6970;51.340;3.240;2023-06-22T02:11:40;18.70;99.90
13798;DHT22;6970;51.340;3.240;2023-06-22T02:14:08;18.70;99.90
13798;DHT22;6970;51.340;3.240;2023-06-22T02:16:35;18.60;99.90
13798;DHT22;6970;51.340;3.240;2023-06-22T02:19:07;18.60;99.90
13798;DHT22;6970;51.340;3.240;2023-06-22T02:21:37;18.60;99.90
13798;DHT22;6970;51.340;3.240;2023-06-22T02:24:04;18.60;99.90
13798;DHT22;6970;51.340;3.240;2023-06-22T02:26:35;18.60;99.90
13798;DHT22;6970;51.340;3.240;2023-06-22T02:29:05;18.60;99.90
13798;DHT22;6970;51.340;3.240;2023-06-22T02:31:35;18.60;99.90
13798;DHT22;6970;51.340;3.240;2023-06-22T02:34:04;18.60;99.90
13798;DHT22;6970;51.340;3.240;2023-06-22T02:36:32;18.60;99.90
13798;DHT22;6970;51.340;3.240;2023-06-22T02:39:00;18.50;99.90
13798;DHT22;6970;51.340;3.240;2023-06-22T02:41:30;18.50;99.90
13798;DHT22;6970;51.340;3.240;2023-06-22T02:43:58;18.50;99.90
13798;DHT22;6970;51.340;3.240;2023-06-22T02:46:28;18.50;99.90
13798;DHT22;6970;51.340;3.240;2023-06-22T02:48:55;18.50;99.90
13798;DHT22;6970;51.340;3.240;2023-06-22T02:51:24;18.50;99.90
13798;DHT22;6970;51.340;3.240;2023-06-22T02:53:53;18.50;99.90
13798;DHT22;6970;51.340;3.240;2023-06-22T02:56:24;18.50;99.90
13798;DHT22;6970;51.340;3.240;2023-06-22T02:58:54;18.50;99.90
13798;DHT22;6970;51.340;3.240;2023-06-22T03:01:31;18.50;99.90
13798;DHT22;6970;51.340;3.240;2023-06-22T03:04:06;18.50;99.90
13798;DHT22;6970;51.340;3.240;2023-06-22T03:06:34;18.50;99.90
13798;DHT22;6970;51.340;3.240;2023-06-22T03:09:04;18.60;99.90
13798;DHT22;6970;51.340;3.240;2023-06-22T03:11:35;18.60;99.90
13798;DHT22;6970;51.340;3.240;2023-06-22T03:14:03;18.50;99.90
13798;DHT22;6970;51.340;3.240;2023-06-22T03:16:30;18.50;99.90
13798;DHT22;6970;51.340;3.240;2023-06-22T03:18:57;18.50;99.90
13798;DHT22;6970;51.340;3.240;2023-06-22T03:21:28;18.50;99.90
13798;DHT22;6970;51.340;3.240;2023-06-22T03:23:55;18.50;99.90
13798;DHT22;6970;51.340;3.240;2023-06-22T03:26:26;18.50;99.90
13798;DHT22;6970;51.340;3.240;2023-06-22T03:28:54;18.60;99.90
13798;DHT22;6970;51.340;3.240;2023-06-22T03:31:28;18.60;99.90
13798;DHT22;6970;51.340;3.240;2023-06-22T03:33:55;18.60;99.90
13798;DHT22;6970;51.340;3.240;2023-06-22T03:36:23;18.60;99.90
13798;DHT22;6970;51.340;3.240;2023-06-22T03:38:53;18.60;99.90
13798;DHT22;6970;51.340;3.240;2023-06-22T03:41:21;18.60;99.90
13798;DHT22;6970;51.340;3.240;2023-06-22T03:43:51;18.60;99.90
13798;DHT22;6970;51.340;3.240;2023-06-22T03:46:18;18.70;99.90
13798;DHT22;6970;51.340;3.240;2023-06-22T03:48:47;18.70;99.90
13798;DHT22;6970;51.340;3.240;2023-06-22T03:51:16;18.70;99.90
13798;DHT22;6970;51.340;3.240;2023-06-22T03:53:43;18.80;99.90
13798;DHT22;6970;51.340;3.240;2023-06-22T03:56:12;18.80;99.90
13798;DHT22;6970;51.340;3.240;2023-06-22T03:58:41;18.80;99.90
13798;DHT22;6970;51.340;3.240;2023-06-22T04:01:11;18.80;99.90
13798;DHT22;6970;51.340;3.240;2023-06-22T04:03:39;18.90;99.90
13798;DHT22;6970;51.340;3.240;2023-06-22T04:06:12;18.90;99.90
13798;DHT22;6970;51.340;3.240;2023-06-22T04:08:41;18.90;99.90
13798;DHT22;6970;51.340;3.240;2023-06-22T04:11:11;19.00;99.90
13798;DHT22;6970;51.340;3.240;2023-06-22T04:13:39;19.00;99.90
13798;DHT22;6970;51.340;3.240;2023-06-22T04:16:09;19.10;99.90
13798;DHT22;6970;51.340;3.240;2023-06-22T04:18:39;19.10;99.90
13798;DHT22;6970;51.340;3.240;2023-06-22T04:21:09;19.10;99.90
13798;DHT22;6970;51.340;3.240;2023-06-22T04:23:37;19.20;99.90
13798;DHT22;6970;51.340;3.240;2023-06-22T04:26:07;19.20;99.90
13798;DHT22;6970;51.340;3.240;2023-06-22T04:28:35;19.30;99.90
13798;DHT22;6970;51.340;3.240;2023-06-22T04:31:03;19.30;99.90
13798;DHT22;6970;51.340;3.240;2023-06-22T04:33:30;19.30;99.90
13798;DHT22;6970;51.340;3.240;2023-06-22T04:36:01;19.40;99.90
13798;DHT22;6970;51.340;3.240;2023-06-22T04:38:31;19.40;99.90
13798;DHT22;6970;51.340;3.240;2023-06-22T04:41:02;19.50;99.90
13798;DHT22;6970;51.340;3.240;2023-06-22T04:43:30;19.60;99.90
13798;DHT22;6970;51.340;3.240;2023-06-22T04:45:57;19.60;99.90
13798;DHT22;6970;51.340;3.240;2023-06-22T04:48:31;19.70;99.90
13798;DHT22;6970;51.340;3.240;2023-06-22T04:51:01;19.80;99.90
13798;DHT22;6970;51.340;3.240;2023-06-22T04:53:32;19.80;99.90
13798;DHT22;6970;51.340;3.240;2023-06-22T04:55:59;19.90;99.90
13798;DHT22;6970;51.340;3.240;2023-06-22T04:58:29;19.90;99.90
13798;DHT22;6970;51.340;3.240;2023-06-22T05:01:02;20.00;99.90
13798;DHT22;6970;51.340;3.240;2023-06-22T05:03:36;20.10;99.90
13798;DHT22;6970;51.340;3.240;2023-06-22T05:06:04;20.10;99.90
13798;DHT22;6970;51.340;3.240;2023-06-22T05:08:32;20.10;99.90
13798;DHT22;6970;51.340;3.240;2023-06-22T05:10:59;20.20;99.90
13798;DHT22;6970;51.340;3.240;2023-06-22T05:13:34;20.30;99.90
13798;DHT22;6970;51.340;3.240;2023-06-22T05:16:03;20.30;99.90
13798;DHT22;6970;51.340;3.240;2023-06-22T05:18:33;20.30;99.90
13798;DHT22;6970;51.340;3.240;2023-06-22T05:21:01;20.40;99.90
13798;DHT22;6970;51.340;3.240;2023-06-22T05:23:31;20.40;99.90
13798;DHT22;6970;51.340;3.240;2023-06-22T05:25:58;20.40;99.90
13798;DHT22;6970;51.340;3.240;2023-06-22T05:28:25;20.50;99.90
13798;DHT22;6970;51.340;3.240;2023-06-22T05:30:52;20.50;99.90
13798;DHT22;6970;51.340;3.240;2023-06-22T05:33:19;20.50;99.90
13798;DHT22;6970;51.340;3.240;2023-06-22T05:35:49;20.50;99.90
13798;DHT22;6970;51.340;3.240;2023-06-22T05:38:20;20.60;99.90
13798;DHT22;6970;51.340;3.240;2023-06-22T05:40:46;20.60;99.90
13798;DHT22;6970;51.340;3.240;2023-06-22T05:43:16;20.70;99.90
13798;DHT22;6970;51.340;3.240;2023-06-22T05:45:45;20.70;99.90
13798;DHT22;6970;51.340;3.240;2023-06-22T05:48:15;20.80;99.90
13798;DHT22;6970;51.340;3.240;2023-06-22T05:50:43;20.90;99.90
13798;DHT22;6970;51.340;3.240;2023-06-22T05:53:10;20.90;99.90
13798;DHT22;6970;51.340;3.240;2023-06-22T05:55:38;21.00;99.90
13798;DHT22;6970;51.340;3.240;2023-06-22T05:58:08;21.10;99.90
13798;DHT22;6970;51.340;3.240;2023-06-22T06:00:36;21.20;99.90
13798;DHT22;6970;51.340;3.240;2023-06-22T06:03:07;21.20;99.90
13798;DHT22;6970;51.340;3.240;2023-06-22T06:05:37;21.30;99.90
13798;DHT22;6970;51.340;3.240;2023-06-22T06:08:08;21.30;99.90
13798;DHT22;6970;51.340;3.240;2023-06-22T06:10:38;21.40;99.90
13798;DHT22;6970;51.340;3.240;2023-06-22T06:13:08;21.40;99.90
13798;DHT22;6970;51.340;3.240;2023-06-22T06:15:37;21.40;99.90
13798;DHT22;6970;51.340;3.240;2023-06-22T06:18:05;21.50;99.90
13798;DHT22;6970;51.340;3.240;2023-06-22T06:20:36;21.50;99.90
13798;DHT22;6970;51.340;3.240;2023-06-22T06:23:04;21.50;99.90
13798;DHT22;6970;51.340;3.240;2023-06-22T06:25:33;21.50;99.90
13798;DHT22;6970;51.340;3.240;2023-06-22T06:28:01;21.50;99.90
13798;DHT22;6970;51.340;3.240;2023-06-22T06:30:31;21.60;99.90
13798;DHT22;6970;51.340;3.240;2023-06-22T06:33:00;21.60;99.90
13798;DHT22;6970;51.340;3.240;2023-06-22T06:35:30;21.70;99.90
13798;DHT22;6970;51.340;3.240;2023-06-22T06:37:58;21.70;99.90
13798;DHT22;6970;51.340;3.240;2023-06-22T06:40:28;21.80;99.90
13798;DHT22;6970;51.340;3.240;2023-06-22T06:42:57;21.80;99.90
13798;DHT22;6970;51.340;3.240;2023-06-22T06:45:27;21.90;99.90
13798;DHT22;6970;51.340;3.240;2023-06-22T06:47:55;22.00;99.90
13798;DHT22;6970;51.340;3.240;2023-06-22T06:50:24;22.10;99.90
13798;DHT22;6970;51.340;3.240;2023-06-22T06:52:52;22.20;99.90
13798;DHT22;6970;51.340;3.240;2023-06-22T06:55:19;22.30;99.90
13798;DHT22;6970;51.340;3.240;2023-06-22T06:57:50;22.30;99.90
13798;DHT22;6970;51.340;3.240;2023-06-22T07:00:20;22.30;99.90
13798;DHT22;6970;51.340;3.240;2023-06-22T07:02:51;22.40;99.90
13798;DHT22;6970;51.340;3.240;2023-06-22T07:05:18;22.40;99.90
13798;DHT22;6970;51.340;3.240;2023-06-22T07:07:45;22.50;99.90
13798;DHT22;6970;51.340;3.240;2023-06-22T07:10:12;22.50;99.90
13798;DHT22;6970;51.340;3.240;2023-06-22T07:12:41;22.60;99.90
13798;DHT22;6970;51.340;3.240;2023-06-22T07:15:14;22.70;99.90
13798;DHT22;6970;51.340;3.240;2023-06-22T07:17:45;22.80;99.90
13798;DHT22;6970;51.340;3.240;2023-06-22T07:20:12;22.90;99.90
13798;DHT22;6970;51.340;3.240;2023-06-22T07:22:43;23.00;99.90
13798;DHT22;6970;51.340;3.240;2023-06-22T07:25:13;23.10;99.90
13798;DHT22;6970;51.340;3.240;2023-06-22T07:27:57;23.30;99.90
13798;DHT22;6970;51.340;3.240;2023-06-22T07:30:28;23.40;99.90
13798;DHT22;6970;51.340;3.240;2023-06-22T07:32:59;23.50;99.90
13798;DHT22;6970;51.340;3.240;2023-06-22T07:35:32;23.60;99.90
13798;DHT22;6970;51.340;3.240;2023-06-22T07:38:01;23.70;99.90
13798;DHT22;6970;51.340;3.240;2023-06-22T07:40:33;23.80;99.90
13798;DHT22;6970;51.340;3.240;2023-06-22T07:43:05;23.90;99.90
13798;DHT22;6970;51.340;3.240;2023-06-22T07:45:32;24.00;99.90
13798;DHT22;6970;51.340;3.240;2023-06-22T07:48:05;24.00;99.90
13798;DHT22;6970;51.340;3.240;2023-06-22T07:50:33;24.10;99.90
13798;DHT22;6970;51.340;3.240;2023-06-22T07:53:03;24.20;99.90
13798;DHT22;6970;51.340;3.240;2023-06-22T07:55:30;24.30;99.90
13798;DHT22;6970;51.340;3.240;2023-06-22T07:57:58;24.40;99.90
13798;DHT22;6970;51.340;3.240;2023-06-22T08:00:29;24.50;99.90
13798;DHT22;6970;51.340;3.240;2023-06-22T08:02:59;24.50;99.90
13798;DHT22;6970;51.340;3.240;2023-06-22T08:05:29;24.60;99.90
13798;DHT22;6970;51.340;3.240;2023-06-22T08:07:57;24.60;99.90
13798;DHT22;6970;51.340;3.240;2023-06-22T08:10:25;24.60;99.90
13798;DHT22;6970;51.340;3.240;2023-06-22T08:12:55;24.60;99.90
13798;DHT22;6970;51.340;3.240;2023-06-22T08:15:22;24.60;99.90
13798;DHT22;6970;51.340;3.240;2023-06-22T08:17:53;24.60;99.90
13798;DHT22;6970;51.340;3.240;2023-06-22T08:20:21;24.60;99.90
13798;DHT22;6970;51.340;3.240;2023-06-22T08:22:50;24.60;99.90
13798;DHT22;6970;51.340;3.240;2023-06-22T08:25:21;24.60;99.90
13798;DHT22;6970;51.340;3.240;2023-06-22T08:27:54;24.60;99.90
13798;DHT22;6970;51.340;3.240;2023-06-22T08:30:21;24.60;99.90
13798;DHT22;6970;51.340;3.240;2023-06-22T08:32:49;24.40;99.90
13798;DHT22;6970;51.340;3.240;2023-06-22T08:35:19;24.40;99.90
13798;DHT22;6970;51.340;3.240;2023-06-22T08:37:50;24.30;99.90
13798;DHT22;6970;51.340;3.240;2023-06-22T08:40:25;24.20;99.90
13798;DHT22;6970;51.340;3.240;2023-06-22T08:42:53;24.20;99.90
13798;DHT22;6970;51.340;3.240;2023-06-22T08:45:20;24.10;99.90
13798;DHT22;6970;51.340;3.240;2023-06-22T08:47:57;24.00;99.90
13798;DHT22;6970;51.340;3.240;2023-06-22T08:50:26;23.90;99.90
13798;DHT22;6970;51.340;3.240;2023-06-22T08:52:54;23.90;99.90
13798;DHT22;6970;51.340;3.240;2023-06-22T08:55:24;23.90;99.90
13798;DHT22;6970;51.340;3.240;2023-06-22T08:57:54;23.90;99.90
13798;DHT22;6970;51.340;3.240;2023-06-22T09:00:24;23.90;99.90
13798;DHT22;6970;51.340;3.240;2023-06-22T09:02:57;23.90;99.90
13798;DHT22;6970;51.340;3.240;2023-06-22T09:05:26;23.90;99.90
13798;DHT22;6970;51.340;3.240;2023-06-22T09:07:56;23.90;99.90
13798;DHT22;6970;51.340;3.240;2023-06-22T09:10:26;23.80;99.90
13798;DHT22;6970;51.340;3.240;2023-06-22T09:12:57;23.80;99.90
13798;DHT22;6970;51.340;3.240;2023-06-22T09:15:26;23.80;99.90
13798;DHT22;6970;51.340;3.240;2023-06-22T09:17:59;23.70;99.90
13798;DHT22;6970;51.340;3.240;2023-06-22T09:20:27;23.70;99.90
13798;DHT22;6970;51.340;3.240;2023-06-22T09:22:57;23.70;99.90
13798;DHT22;6970;51.340;3.240;2023-06-22T09:25:25;23.70;99.90
13798;DHT22;6970;51.340;3.240;2023-06-22T09:27:55;23.60;99.90
13798;DHT22;6970;51.340;3.240;2023-06-22T09:30:25;23.60;99.90
13798;DHT22;6970;51.340;3.240;2023-06-22T09:32:56;23.60;99.90
13798;DHT22;6970;51.340;3.240;2023-06-22T09:35:23;23.60;99.90
13798;DHT22;6970;51.340;3.240;2023-06-22T09:37:53;23.60;99.90
13798;DHT22;6970;51.340;3.240;2023-06-22T09:40:25;23.60;99.90
13798;DHT22;6970;51.340;3.240;2023-06-22T09:42:56;23.60;99.90
13798;DHT22;6970;51.340;3.240;2023-06-22T09:45:26;23.60;99.90
13798;DHT22;6970;51.340;3.240;2023-06-22T09:47:54;23.60;99.90
13798;DHT22;6970;51.340;3.240;2023-06-22T09:50:22;23.60;99.90
13798;DHT22;6970;51.340;3.240;2023-06-22T09:52:52;23.60;99.90
13798;DHT22;6970;51.340;3.240;2023-06-22T09:55:24;23.60;99.90
13798;DHT22;6970;51.340;3.240;2023-06-22T09:57:53;23.50;99.90
13798;DHT22;6970;51.340;3.240;2023-06-22T10:00:25;23.60;99.90
13798;DHT22;6970;51.340;3.240;2023-06-22T10:02:57;23.60;99.90
13798;DHT22;6970;51.340;3.240;2023-06-22T10:05:28;23.70;99.90
13798;DHT22;6970;51.340;3.240;2023-06-22T10:07:56;23.70;99.90
13798;DHT22;6970;51.340;3.240;2023-06-22T10:10:26;23.70;99.90
13798;DHT22;6970;51.340;3.240;2023-06-22T10:12:57;23.70;99.90
13798;DHT22;6970;51.340;3.240;2023-06-22T10:15:24;23.70;99.90
13798;DHT22;6970;51.340;3.240;2023-06-22T10:17:54;23.70;99.90
13798;DHT22;6970;51.340;3.240;2023-06-22T10:20:21;23.70;99.90
13798;DHT22;6970;51.340;3.240;2023-06-22T10:22:51;23.80;99.90
13798;DHT22;6970;51.340;3.240;2023-06-22T10:25:18;23.90;99.90
13798;DHT22;6970;51.340;3.240;2023-06-22T10:27:48;23.90;99.90
13798;DHT22;6970;51.340;3.240;2023-06-22T10:30:16;23.90;99.90
13798;DHT22;6970;51.340;3.240;2023-06-22T10:32:45;23.90;99.90
13798;DHT22;6970;51.340;3.240;2023-06-22T10:35:14;23.90;99.90
13798;DHT22;6970;51.340;3.240;2023-06-22T10:37:46;23.90;99.90
13798;DHT22;6970;51.340;3.240;2023-06-22T10:40:14;23.80;99.90
13798;DHT22;6970;51.340;3.240;2023-06-22T10:42:42;23.70;99.90
13798;DHT22;6970;51.340;3.240;2023-06-22T10:45:10;23.70;99.90
13798;DHT22;6970;51.340;3.240;2023-06-22T10:47:37;23.60;99.90
13798;DHT22;6970;51.340;3.240;2023-06-22T10:50:05;23.40;99.90
13798;DHT22;6970;51.340;3.240;2023-06-22T10:52:35;23.20;99.90
13798;DHT22;6970;51.340;3.240;2023-06-22T10:55:06;23.10;99.90
13798;DHT22;6970;51.340;3.240;2023-06-22T10:57:33;23.00;99.90
13798;DHT22;6970;51.340;3.240;2023-06-22T11:00:01;22.90;99.90
13798;DHT22;6970;51.340;3.240;2023-06-22T11:02:28;22.90;99.90
13798;DHT22;6970;51.340;3.240;2023-06-22T11:04:59;22.80;99.90
13798;DHT22;6970;51.340;3.240;2023-06-22T11:07:30;22.70;99.90
13798;DHT22;6970;51.340;3.240;2023-06-22T11:09:57;22.60;99.90
13798;DHT22;6970;51.340;3.240;2023-06-22T11:12:25;22.60;99.90
13798;DHT22;6970;51.340;3.240;2023-06-22T11:14:52;22.60;99.90
13798;DHT22;6970;51.340;3.240;2023-06-22T11:17:19;22.60;99.90
13798;DHT22;6970;51.340;3.240;2023-06-22T11:19:48;22.50;99.90
13798;DHT22;6970;51.340;3.240;2023-06-22T11:22:17;22.50;99.90
13798;DHT22;6970;51.340;3.240;2023-06-22T11:24:46;22.50;99.90
13798;DHT22;6970;51.340;3.240;2023-06-22T11:27:19;22.50;99.90
13798;DHT22;6970;51.340;3.240;2023-06-22T11:29:49;22.50;99.90
13798;DHT22;6970;51.340;3.240;2023-06-22T11:32:18;22.40;99.90
13798;DHT22;6970;51.340;3.240;2023-06-22T11:34:49;22.40;99.90
13798;DHT22;6970;51.340;3.240;2023-06-22T11:37:17;22.30;99.90
13798;DHT22;6970;51.340;3.240;2023-06-22T11:39:47;22.20;99.90
13798;DHT22;6970;51.340;3.240;2023-06-22T11:42:24;22.10;99.90
13798;DHT22;6970;51.340;3.240;2023-06-22T11:44:52;22.10;99.90
13798;DHT22;6970;51.340;3.240;2023-06-22T11:47:25;22.00;99.90
13798;DHT22;6970;51.340;3.240;2023-06-22T11:49:55;21.90;99.90
13798;DHT22;6970;51.340;3.240;2023-06-22T11:52:25;21.90;99.90
13798;DHT22;6970;51.340;3.240;2023-06-22T11:54:54;21.90;99.90
13798;DHT22;6970;51.340;3.240;2023-06-22T11:57:22;21.90;99.90
13798;DHT22;6970;51.340;3.240;2023-06-22T11:59:55;21.90;99.90
13798;DHT22;6970;51.340;3.240;2023-06-22T12:02:24;21.90;99.90
13798;DHT22;6970;51.340;3.240;2023-06-22T12:04:51;21.90;99.90
13798;DHT22;6970;51.340;3.240;2023-06-22T12:07:20;21.90;99.90
13798;DHT22;6970;51.340;3.240;2023-06-22T12:09:50;21.90;99.90
13798;DHT22;6970;51.340;3.240;2023-06-22T12:12:20;21.90;99.90
13798;DHT22;6970;51.340;3.240;2023-06-22T12:14:47;21.80;99.90
13798;DHT22;6970;51.340;3.240;2023-06-22T12:17:20;21.80;99.90
13798;DHT22;6970;51.340;3.240;2023-06-22T12:19:48;21.70;99.90
13798;DHT22;6970;51.340;3.240;2023-06-22T12:22:17;21.60;99.90
13798;DHT22;6970;51.340;3.240;2023-06-22T12:24:44;21.60;99.90
13798;DHT22;6970;51.340;3.240;2023-06-22T12:27:14;21.60;99.90
13798;DHT22;6970;51.340;3.240;2023-06-22T12:29:43;21.60;99.90
13798;DHT22;6970;51.340;3.240;2023-06-22T12:32:10;21.60;99.90
13798;DHT22;6970;51.340;3.240;2023-06-22T12:34:42;21.60;99.90
13798;DHT22;6970;51.340;3.240;2023-06-22T12:37:10;21.60;99.90
13798;DHT22;6970;51.340;3.240;2023-06-22T12:39:39;21.60;99.90
13798;DHT22;6970;51.340;3.240;2023-06-22T12:42:07;21.60;99.90
13798;DHT22;6970;51.340;3.240;2023-06-22T12:44:37;21.60;99.90
13798;DHT22;6970;51.340;3.240;2023-06-22T12:47:06;21.50;99.90
13798;DHT22;6970;51.340;3.240;2023-06-22T12:49:35;21.50;99.90
13798;DHT22;6970;51.340;3.240;2023-06-22T12:52:09;21.40;99.90
13798;DHT22;6970;51.340;3.240;2023-06-22T12:54:37;21.40;99.90
13798;DHT22;6970;51.340;3.240;2023-06-22T12:57:16;21.30;99.90
13798;DHT22;6970;51.340;3.240;2023-06-22T12:59:47;21.30;99.90
13798;DHT22;6970;51.340;3.240;2023-06-22T13:02:14;21.30;99.90
13798;DHT22;6970;51.340;3.240;2023-06-22T13:04:43;21.20;99.90
13798;DHT22;6970;51.340;3.240;2023-06-22T13:07:14;21.20;99.90
13798;DHT22;6970;51.340;3.240;2023-06-22T13:09:50;21.30;99.90
13798;DHT22;6970;51.340;3.240;2023-06-22T13:12:22;21.40;99.90
13798;DHT22;6970;51.340;3.240;2023-06-22T13:14:51;21.40;99.90
13798;DHT22;6970;51.340;3.240;2023-06-22T13:17:18;21.40;99.90
13798;DHT22;6970;51.340;3.240;2023-06-22T13:19:46;21.30;99.90
13798;DHT22;6970;51.340;3.240;2023-06-22T13:22:32;21.30;99.90
13798;DHT22;6970;51.340;3.240;2023-06-22T13:25:05;21.30;99.90
13798;DHT22;6970;51.340;3.240;2023-06-22T13:27:33;21.30;99.90
13798;DHT22;6970;51.340;3.240;2023-06-22T13:30:02;21.20;99.90
13798;DHT22;6970;51.340;3.240;2023-06-22T13:32:31;21.20;99.90
13798;DHT22;6970;51.340;3.240;2023-06-22T13:34:59;21.20;99.90
13798;DHT22;6970;51.340;3.240;2023-06-22T13:37:29;21.20;99.90
13798;DHT22;6970;51.340;3.240;2023-06-22T13:39:58;21.20;99.90
13798;DHT22;6970;51.340;3.240;2023-06-22T13:42:28;21.20;99.90
13798;DHT22;6970;51.340;3.240;2023-06-22T13:44:58;21.20;99.90
13798;DHT22;6970;51.340;3.240;2023-06-22T13:47:26;21.20;99.90
13798;DHT22;6970;51.340;3.240;2023-06-22T13:49:59;21.20;99.90
13798;DHT22;6970;51.340;3.240;2023-06-22T13:52:27;21.30;99.90
13798;DHT22;6970;51.340;3.240;2023-06-22T13:54:56;21.40;99.90
13798;DHT22;6970;51.340;3.240;2023-06-22T13:57:23;21.40;99.90
13798;DHT22;6970;51.340;3.240;2023-06-22T13:59:52;21.40;99.90
13798;DHT22;6970;51.340;3.240;2023-06-22T14:02:20;21.40;99.90
13798;DHT22;6970;51.340;3.240;2023-06-22T14:04:47;21.40;99.90
13798;DHT22;6970;51.340;3.240;2023-06-22T14:07:17;21.50;99.90
13798;DHT22;6970;51.340;3.240;2023-06-22T14:09:46;21.50;99.90
13798;DHT22;6970;51.340;3.240;2023-06-22T14:12:13;21.50;99.90
13798;DHT22;6970;51.340;3.240;2023-06-22T14:14:40;21.50;99.90
13798;DHT22;6970;51.340;3.240;2023-06-22T14:17:07;21.60;99.90
13798;DHT22;6970;51.340;3.240;2023-06-22T14:19:35;21.70;99.90
13798;DHT22;6970;51.340;3.240;2023-06-22T14:22:04;21.80;99.90
13798;DHT22;6970;51.340;3.240;2023-06-22T14:24:31;21.80;99.90
13798;DHT22;6970;51.340;3.240;2023-06-22T14:27:01;21.90;99.90
13798;DHT22;6970;51.340;3.240;2023-06-22T14:29:32;22.00;99.90
13798;DHT22;6970;51.340;3.240;2023-06-22T14:31:59;22.10;99.90
13798;DHT22;6970;51.340;3.240;2023-06-22T14:34:26;22.20;99.90
13798;DHT22;6970;51.340;3.240;2023-06-22T14:36:53;22.20;99.90
13798;DHT22;6970;51.340;3.240;2023-06-22T14:39:23;22.30;99.90
13798;DHT22;6970;51.340;3.240;2023-06-22T14:41:51;22.30;99.90
13798;DHT22;6970;51.340;3.240;2023-06-22T14:44:19;22.30;99.90
13798;DHT22;6970;51.340;3.240;2023-06-22T14:46:49;22.30;99.90
13798;DHT22;6970;51.340;3.240;2023-06-22T14:49:19;22.30;99.90
13798;DHT22;6970;51.340;3.240;2023-06-22T14:51:50;22.30;99.90
13798;DHT22;6970;51.340;3.240;2023-06-22T14:54:19;22.30;99.90
13798;DHT22;6970;51.340;3.240;2023-06-22T14:56:48;22.20;99.90
13798;DHT22;6970;51.340;3.240;2023-06-22T14:59:15;22.10;99.90
13798;DHT22;6970;51.340;3.240;2023-06-22T15:01:45;22.00;99.90
13798;DHT22;6970;51.340;3.240;2023-06-22T15:04:14;21.90;99.90
13798;DHT22;6970;51.340;3.240;2023-06-22T15:06:41;21.90;99.90
13798;DHT22;6970;51.340;3.240;2023-06-22T15:09:12;21.90;99.90
13798;DHT22;6970;51.340;3.240;2023-06-22T15:11:42;21.90;99.90
13798;DHT22;6970;51.340;3.240;2023-06-22T15:14:13;21.90;99.90
13798;DHT22;6970;51.340;3.240;2023-06-22T15:16:42;21.90;99.90
13798;DHT22;6970;51.340;3.240;2023-06-22T15:19:11;21.80;99.90
13798;DHT22;6970;51.340;3.240;2023-06-22T15:21:40;21.80;99.90
13798;DHT22;6970;51.340;3.240;2023-06-22T15:24:10;21.80;99.90
13798;DHT22;6970;51.340;3.240;2023-06-22T15:26:41;21.80;99.90
13798;DHT22;6970;51.340;3.240;2023-06-22T15:29:11;21.80;99.90
13798;DHT22;6970;51.340;3.240;2023-06-22T15:31:39;21.80;99.90
13798;DHT22;6970;51.340;3.240;2023-06-22T15:34:08;21.80;99.90
13798;DHT22;6970;51.340;3.240;2023-06-22T15:36:38;21.90;99.90
13798;DHT22;6970;51.340;3.240;2023-06-22T15:39:06;22.00;99.90
13798;DHT22;6970;51.340;3.240;2023-06-22T15:41:33;22.00;99.90
13798;DHT22;6970;51.340;3.240;2023-06-22T15:44:00;22.00;99.90
13798;DHT22;6970;51.340;3.240;2023-06-22T15:46:28;22.00;99.90
13798;DHT22;6970;51.340;3.240;2023-06-22T15:48:57;22.00;99.90
13798;DHT22;6970;51.340;3.240;2023-06-22T15:51:27;22.00;99.90
13798;DHT22;6970;51.340;3.240;2023-06-22T15:54:02;21.90;99.90
13798;DHT22;6970;51.340;3.240;2023-06-22T15:56:31;21.90;99.90
13798;DHT22;6970;51.340;3.240;2023-06-22T15:59:01;22.00;99.90
13798;DHT22;6970;51.340;3.240;2023-06-22T16:01:35;21.90;99.90